Almond, North Carolina
Current Conditions -  °F | °C
As of 10:55 AM on Tuesday 21 Oct 2014 (Local Time) from KRHP Reporting Station
Haze Haze  
Wind Chill: 49°   Ceiling: 200
Heat Index: 49°   Visibility: 4mi
Dew Point: 49°   Wind: 3mph
Humidity: 100%   Direction: 250°WSW
Pressure: 30.04"   Gusts: NA
Location:  35.37°N, 83.57°W
Report Text: KRHP 211455Z AUTO 25003KT 4SM BR BKN002 09/09 A3004 RMK AO2 T00930093
Loading
Personal Weather Stations






























Interactive Weather Map
Tropical Storm Tracking
New forecast layout! Learn more

10-Day Weather Forecast

Advertisements
Track Severe Weather on mobile